sensor_id;sensor_type;location;lat;lon;timestamp;P1;durP1;ratioP1;P2;durP2;ratioP2
53439;SDS011;39333;47.044;15.080;2022-10-31T00:00:56;155.50;;;148.00;;
53439;SDS011;39333;47.044;15.080;2022-10-31T00:03:25;157.85;;;149.82;;
53439;SDS011;39333;47.044;15.080;2022-10-31T00:05:52;158.00;;;150.60;;
53439;SDS011;39333;47.044;15.080;2022-10-31T00:08:19;155.52;;;147.82;;
53439;SDS011;39333;47.044;15.080;2022-10-31T00:10:46;163.75;;;155.35;;
53439;SDS011;39333;47.044;15.080;2022-10-31T00:13:13;166.30;;;158.45;;
53439;SDS011;39333;47.044;15.080;2022-10-31T00:15:40;159.90;;;152.38;;
53439;SDS011;39333;47.044;15.080;2022-10-31T00:18:08;155.20;;;147.98;;
53439;SDS011;39333;47.044;15.080;2022-10-31T00:20:35;151.05;;;143.90;;
53439;SDS011;39333;47.044;15.080;2022-10-31T00:23:03;155.02;;;147.68;;
53439;SDS011;39333;47.044;15.080;2022-10-31T00:25:33;150.65;;;143.85;;
53439;SDS011;39333;47.044;15.080;2022-10-31T00:28:02;151.85;;;144.70;;
53439;SDS011;39333;47.044;15.080;2022-10-31T00:30:30;149.77;;;142.68;;
53439;SDS011;39333;47.044;15.080;2022-10-31T00:32:56;159.45;;;152.23;;
53439;SDS011;39333;47.044;15.080;2022-10-31T00:35:24;153.90;;;146.73;;
53439;SDS011;39333;47.044;15.080;2022-10-31T00:37:51;156.90;;;149.63;;
53439;SDS011;39333;47.044;15.080;2022-10-31T00:40:18;161.65;;;154.63;;
53439;SDS011;39333;47.044;15.080;2022-10-31T00:42:45;153.73;;;146.68;;
53439;SDS011;39333;47.044;15.080;2022-10-31T00:45:12;150.32;;;143.02;;
53439;SDS011;39333;47.044;15.080;2022-10-31T00:47:38;145.35;;;138.88;;
53439;SDS011;39333;47.044;15.080;2022-10-31T00:50:05;145.10;;;138.65;;
53439;SDS011;39333;47.044;15.080;2022-10-31T00:52:33;147.23;;;140.52;;
53439;SDS011;39333;47.044;15.080;2022-10-31T00:55:01;150.57;;;143.93;;
53439;SDS011;39333;47.044;15.080;2022-10-31T00:57:27;148.50;;;141.88;;
53439;SDS011;39333;47.044;15.080;2022-10-31T00:59:54;143.82;;;137.82;;
53439;SDS011;39333;47.044;15.080;2022-10-31T01:02:21;147.15;;;140.75;;
53439;SDS011;39333;47.044;15.080;2022-10-31T01:04:48;147.32;;;140.85;;
53439;SDS011;39333;47.044;15.080;2022-10-31T01:07:14;148.93;;;142.45;;
53439;SDS011;39333;47.044;15.080;2022-10-31T01:09:44;148.27;;;141.85;;
53439;SDS011;39333;47.044;15.080;2022-10-31T01:12:11;152.55;;;145.77;;
53439;SDS011;39333;47.044;15.080;2022-10-31T01:14:42;145.25;;;138.50;;
53439;SDS011;39333;47.044;15.080;2022-10-31T01:17:09;145.38;;;138.70;;
53439;SDS011;39333;47.044;15.080;2022-10-31T01:19:36;145.80;;;139.30;;
53439;SDS011;39333;47.044;15.080;2022-10-31T01:22:02;156.35;;;149.15;;
53439;SDS011;39333;47.044;15.080;2022-10-31T01:24:29;145.10;;;138.82;;
53439;SDS011;39333;47.044;15.080;2022-10-31T01:26:56;144.88;;;139.00;;
53439;SDS011;39333;47.044;15.080;2022-10-31T01:29:22;148.40;;;141.50;;
53439;SDS011;39333;47.044;15.080;2022-10-31T01:31:49;151.48;;;144.98;;
53439;SDS011;39333;47.044;15.080;2022-10-31T01:34:16;151.70;;;145.20;;
53439;SDS011;39333;47.044;15.080;2022-10-31T01:36:44;147.50;;;140.73;;
53439;SDS011;39333;47.044;15.080;2022-10-31T01:39:14;155.18;;;147.93;;
53439;SDS011;39333;47.044;15.080;2022-10-31T01:41:42;153.15;;;146.77;;
53439;SDS011;39333;47.044;15.080;2022-10-31T01:49:37;151.70;;;145.30;;
53439;SDS011;39333;47.044;15.080;2022-10-31T01:54:36;152.38;;;146.00;;
53439;SDS011;39333;47.044;15.080;2022-10-31T01:57:07;149.23;;;142.90;;
53439;SDS011;39333;47.044;15.080;2022-10-31T01:59:38;146.40;;;139.75;;
53439;SDS011;39333;47.044;15.080;2022-10-31T02:02:10;150.75;;;144.10;;
53439;SDS011;39333;47.044;15.080;2022-10-31T02:04:38;140.73;;;134.93;;
53439;SDS011;39333;47.044;15.080;2022-10-31T02:07:51;142.13;;;136.05;;
53439;SDS011;39333;47.044;15.080;2022-10-31T02:10:00;143.93;;;137.52;;
53439;SDS011;39333;47.044;15.080;2022-10-31T02:12:30;143.95;;;137.82;;
53439;SDS011;39333;47.044;15.080;2022-10-31T02:14:59;139.70;;;133.25;;
53439;SDS011;39333;47.044;15.080;2022-10-31T02:17:26;147.18;;;140.52;;
53439;SDS011;39333;47.044;15.080;2022-10-31T02:20:55;149.38;;;143.02;;
53439;SDS011;39333;47.044;15.080;2022-10-31T02:35:11;141.00;;;135.05;;
53439;SDS011;39333;47.044;15.080;2022-10-31T02:39:56;141.15;;;134.68;;
53439;SDS011;39333;47.044;15.080;2022-10-31T02:42:52;139.10;;;132.85;;
53439;SDS011;39333;47.044;15.080;2022-10-31T02:45:38;136.23;;;130.63;;
53439;SDS011;39333;47.044;15.080;2022-10-31T02:48:19;138.43;;;132.32;;
53439;SDS011;39333;47.044;15.080;2022-10-31T02:50:53;140.63;;;134.43;;
53439;SDS011;39333;47.044;15.080;2022-10-31T02:53:23;144.32;;;137.98;;
53439;SDS011;39333;47.044;15.080;2022-10-31T02:55:58;139.88;;;133.73;;
53439;SDS011;39333;47.044;15.080;2022-10-31T02:58:29;151.10;;;144.82;;
53439;SDS011;39333;47.044;15.080;2022-10-31T03:06:52;140.10;;;133.90;;
53439;SDS011;39333;47.044;15.080;2022-10-31T03:09:34;139.38;;;133.40;;
53439;SDS011;39333;47.044;15.080;2022-10-31T03:12:14;131.18;;;125.55;;
53439;SDS011;39333;47.044;15.080;2022-10-31T03:15:18;141.57;;;134.98;;
53439;SDS011;39333;47.044;15.080;2022-10-31T03:17:52;137.50;;;131.60;;
53439;SDS011;39333;47.044;15.080;2022-10-31T03:20:31;144.85;;;138.55;;
53439;SDS011;39333;47.044;15.080;2022-10-31T03:23:04;144.80;;;138.88;;
53439;SDS011;39333;47.044;15.080;2022-10-31T03:25:34;139.45;;;133.38;;
53439;SDS011;39333;47.044;15.080;2022-10-31T03:28:03;135.50;;;129.52;;
53439;SDS011;39333;47.044;15.080;2022-10-31T03:30:32;145.80;;;139.48;;
53439;SDS011;39333;47.044;15.080;2022-10-31T03:33:02;134.77;;;129.27;;
53439;SDS011;39333;47.044;15.080;2022-10-31T03:35:32;144.50;;;138.20;;
53439;SDS011;39333;47.044;15.080;2022-10-31T03:38:02;144.63;;;138.43;;
53439;SDS011;39333;47.044;15.080;2022-10-31T03:40:33;136.45;;;130.63;;
53439;SDS011;39333;47.044;15.080;2022-10-31T03:43:04;139.23;;;132.88;;
53439;SDS011;39333;47.044;15.080;2022-10-31T03:45:36;139.07;;;133.15;;
53439;SDS011;39333;47.044;15.080;2022-10-31T03:48:08;137.13;;;131.43;;
53439;SDS011;39333;47.044;15.080;2022-10-31T03:50:38;141.93;;;135.73;;
53439;SDS011;39333;47.044;15.080;2022-10-31T03:53:13;145.20;;;138.98;;
53439;SDS011;39333;47.044;15.080;2022-10-31T03:55:49;135.27;;;129.50;;
53439;SDS011;39333;47.044;15.080;2022-10-31T03:58:20;144.48;;;137.98;;
53439;SDS011;39333;47.044;15.080;2022-10-31T04:00:52;146.40;;;139.45;;
53439;SDS011;39333;47.044;15.080;2022-10-31T04:03:22;140.35;;;134.27;;
53439;SDS011;39333;47.044;15.080;2022-10-31T04:05:55;140.68;;;134.88;;
53439;SDS011;39333;47.044;15.080;2022-10-31T04:08:26;140.57;;;134.38;;
53439;SDS011;39333;47.044;15.080;2022-10-31T04:10:57;144.40;;;138.02;;
53439;SDS011;39333;47.044;15.080;2022-10-31T04:13:29;143.05;;;136.63;;
53439;SDS011;39333;47.044;15.080;2022-10-31T04:16:11;140.60;;;134.52;;
53439;SDS011;39333;47.044;15.080;2022-10-31T04:18:42;136.68;;;130.88;;
53439;SDS011;39333;47.044;15.080;2022-10-31T04:21:09;146.90;;;140.75;;
53439;SDS011;39333;47.044;15.080;2022-10-31T04:23:36;135.15;;;129.25;;
53439;SDS011;39333;47.044;15.080;2022-10-31T04:26:13;140.48;;;134.48;;
53439;SDS011;39333;47.044;15.080;2022-10-31T04:28:42;146.48;;;139.98;;
53439;SDS011;39333;47.044;15.080;2022-10-31T04:31:11;138.90;;;132.38;;
53439;SDS011;39333;47.044;15.080;2022-10-31T04:33:38;132.98;;;127.10;;
53439;SDS011;39333;47.044;15.080;2022-10-31T04:36:05;136.43;;;130.43;;
53439;SDS011;39333;47.044;15.080;2022-10-31T04:38:33;137.75;;;131.27;;
53439;SDS011;39333;47.044;15.080;2022-10-31T04:41:04;142.63;;;136.38;;
53439;SDS011;39333;47.044;15.080;2022-10-31T04:43:37;148.90;;;142.27;;
53439;SDS011;39333;47.044;15.080;2022-10-31T04:46:04;142.32;;;135.88;;
53439;SDS011;39333;47.044;15.080;2022-10-31T04:48:30;148.02;;;141.15;;
53439;SDS011;39333;47.044;15.080;2022-10-31T04:51:00;138.52;;;132.20;;
53439;SDS011;39333;47.044;15.080;2022-10-31T04:53:28;139.85;;;133.52;;
53439;SDS011;39333;47.044;15.080;2022-10-31T04:56:13;139.77;;;133.63;;
53439;SDS011;39333;47.044;15.080;2022-10-31T04:58:43;135.77;;;129.88;;
53439;SDS011;39333;47.044;15.080;2022-10-31T05:01:10;136.60;;;129.57;;
53439;SDS011;39333;47.044;15.080;2022-10-31T05:03:38;136.95;;;130.35;;
53439;SDS011;39333;47.044;15.080;2022-10-31T05:06:06;140.73;;;134.32;;
53439;SDS011;39333;47.044;15.080;2022-10-31T05:08:34;139.55;;;133.65;;
53439;SDS011;39333;47.044;15.080;2022-10-31T05:11:04;147.00;;;140.68;;
53439;SDS011;39333;47.044;15.080;2022-10-31T05:13:32;141.07;;;134.63;;
53439;SDS011;39333;47.044;15.080;2022-10-31T05:16:11;134.38;;;128.55;;
53439;SDS011;39333;47.044;15.080;2022-10-31T05:18:56;143.13;;;136.25;;
53439;SDS011;39333;47.044;15.080;2022-10-31T05:21:52;137.77;;;131.15;;
53439;SDS011;39333;47.044;15.080;2022-10-31T05:24:19;138.45;;;132.48;;
53439;SDS011;39333;47.044;15.080;2022-10-31T05:26:48;147.63;;;141.02;;
53439;SDS011;39333;47.044;15.080;2022-10-31T05:29:16;132.23;;;126.55;;
53439;SDS011;39333;47.044;15.080;2022-10-31T05:31:42;134.15;;;127.90;;
53439;SDS011;39333;47.044;15.080;2022-10-31T05:34:22;143.93;;;135.82;;
53439;SDS011;39333;47.044;15.080;2022-10-31T05:37:24;142.95;;;135.43;;
53439;SDS011;39333;47.044;15.080;2022-10-31T05:39:51;147.52;;;139.73;;
53439;SDS011;39333;47.044;15.080;2022-10-31T05:42:18;157.48;;;146.27;;
53439;SDS011;39333;47.044;15.080;2022-10-31T05:44:44;177.75;;;163.15;;
53439;SDS011;39333;47.044;15.080;2022-10-31T05:47:20;165.02;;;153.75;;
53439;SDS011;39333;47.044;15.080;2022-10-31T05:50:05;172.57;;;157.80;;
53439;SDS011;39333;47.044;15.080;2022-10-31T05:52:57;212.30;;;192.38;;
53439;SDS011;39333;47.044;15.080;2022-10-31T05:55:32;193.32;;;176.45;;
53439;SDS011;39333;47.044;15.080;2022-10-31T05:58:07;180.13;;;164.03;;
53439;SDS011;39333;47.044;15.080;2022-10-31T06:00:36;191.15;;;174.23;;
53439;SDS011;39333;47.044;15.080;2022-10-31T06:03:07;173.32;;;158.38;;
53439;SDS011;39333;47.044;15.080;2022-10-31T06:05:43;179.48;;;163.02;;
53439;SDS011;39333;47.044;15.080;2022-10-31T06:08:16;176.95;;;163.93;;
53439;SDS011;39333;47.044;15.080;2022-10-31T06:10:43;177.10;;;163.45;;
53439;SDS011;39333;47.044;15.080;2022-10-31T06:13:14;168.50;;;155.57;;
53439;SDS011;39333;47.044;15.080;2022-10-31T06:15:49;169.85;;;156.35;;
53439;SDS011;39333;47.044;15.080;2022-10-31T06:18:19;165.85;;;153.38;;
53439;SDS011;39333;47.044;15.080;2022-10-31T06:20:48;170.88;;;158.63;;
53439;SDS011;39333;47.044;15.080;2022-10-31T06:23:15;159.95;;;148.75;;
53439;SDS011;39333;47.044;15.080;2022-10-31T06:25:49;156.70;;;145.90;;
53439;SDS011;39333;47.044;15.080;2022-10-31T06:28:16;165.82;;;154.65;;
53439;SDS011;39333;47.044;15.080;2022-10-31T06:30:52;153.45;;;143.82;;
53439;SDS011;39333;47.044;15.080;2022-10-31T06:33:20;156.07;;;146.68;;
53439;SDS011;39333;47.044;15.080;2022-10-31T06:35:54;146.20;;;137.32;;
53439;SDS011;39333;47.044;15.080;2022-10-31T06:38:22;148.48;;;138.70;;
53439;SDS011;39333;47.044;15.080;2022-10-31T06:40:49;148.57;;;139.07;;
53439;SDS011;39333;47.044;15.080;2022-10-31T06:43:21;145.18;;;135.88;;
53439;SDS011;39333;47.044;15.080;2022-10-31T06:45:55;153.10;;;143.75;;
53439;SDS011;39333;47.044;15.080;2022-10-31T06:48:30;142.77;;;134.73;;
53439;SDS011;39333;47.044;15.080;2022-10-31T06:53:43;149.68;;;141.05;;
53439;SDS011;39333;47.044;15.080;2022-10-31T06:56:12;145.68;;;137.75;;
53439;SDS011;39333;47.044;15.080;2022-10-31T06:58:46;143.57;;;135.00;;
53439;SDS011;39333;47.044;15.080;2022-10-31T07:01:14;144.88;;;136.73;;
53439;SDS011;39333;47.044;15.080;2022-10-31T07:03:41;140.70;;;133.05;;
53439;SDS011;39333;47.044;15.080;2022-10-31T07:06:08;154.35;;;145.77;;
53439;SDS011;39333;47.044;15.080;2022-10-31T07:08:36;149.82;;;142.07;;
53439;SDS011;39333;47.044;15.080;2022-10-31T07:11:02;148.30;;;140.38;;
53439;SDS011;39333;47.044;15.080;2022-10-31T07:13:29;150.57;;;142.98;;
53439;SDS011;39333;47.044;15.080;2022-10-31T07:16:04;148.75;;;141.20;;
53439;SDS011;39333;47.044;15.080;2022-10-31T07:18:34;160.15;;;152.13;;
53439;SDS011;39333;47.044;15.080;2022-10-31T07:21:01;151.50;;;143.57;;
53439;SDS011;39333;47.044;15.080;2022-10-31T07:23:28;165.73;;;157.45;;
53439;SDS011;39333;47.044;15.080;2022-10-31T07:26:13;146.88;;;139.40;;
53439;SDS011;39333;47.044;15.080;2022-10-31T07:28:45;151.00;;;143.70;;
53439;SDS011;39333;47.044;15.080;2022-10-31T07:31:16;149.10;;;141.43;;
53439;SDS011;39333;47.044;15.080;2022-10-31T07:33:42;154.52;;;146.68;;
53439;SDS011;39333;47.044;15.080;2022-10-31T07:36:35;160.43;;;152.05;;
53439;SDS011;39333;47.044;15.080;2022-10-31T07:39:03;165.88;;;157.50;;
53439;SDS011;39333;47.044;15.080;2022-10-31T07:41:32;156.15;;;148.38;;
53439;SDS011;39333;47.044;15.080;2022-10-31T07:43:59;154.15;;;146.48;;
53439;SDS011;39333;47.044;15.080;2022-10-31T07:46:28;161.10;;;153.63;;
53439;SDS011;39333;47.044;15.080;2022-10-31T07:49:24;153.80;;;146.05;;
53439;SDS011;39333;47.044;15.080;2022-10-31T07:52:10;154.27;;;146.70;;
53439;SDS011;39333;47.044;15.080;2022-10-31T07:55:03;165.77;;;158.02;;
53439;SDS011;39333;47.044;15.080;2022-10-31T07:57:30;163.63;;;156.38;;
53439;SDS011;39333;47.044;15.080;2022-10-31T08:00:00;167.82;;;159.85;;
53439;SDS011;39333;47.044;15.080;2022-10-31T08:02:28;158.35;;;150.85;;
53439;SDS011;39333;47.044;15.080;2022-10-31T08:05:20;169.60;;;161.73;;
53439;SDS011;39333;47.044;15.080;2022-10-31T08:08:06;158.00;;;150.98;;
53439;SDS011;39333;47.044;15.080;2022-10-31T08:10:34;163.05;;;155.68;;
53439;SDS011;39333;47.044;15.080;2022-10-31T08:13:05;157.10;;;149.88;;
53439;SDS011;39333;47.044;15.080;2022-10-31T08:15:37;157.30;;;149.87;;
53439;SDS011;39333;47.044;15.080;2022-10-31T08:18:10;161.00;;;153.50;;
53439;SDS011;39333;47.044;15.080;2022-10-31T08:20:39;160.75;;;153.27;;
53439;SDS011;39333;47.044;15.080;2022-10-31T08:23:06;162.43;;;155.55;;
53439;SDS011;39333;47.044;15.080;2022-10-31T08:25:35;162.60;;;155.57;;
53439;SDS011;39333;47.044;15.080;2022-10-31T08:28:05;164.52;;;156.75;;
53439;SDS011;39333;47.044;15.080;2022-10-31T08:30:33;168.50;;;160.50;;
53439;SDS011;39333;47.044;15.080;2022-10-31T08:33:21;169.98;;;161.63;;
53439;SDS011;39333;47.044;15.080;2022-10-31T08:36:06;166.98;;;159.85;;
53439;SDS011;39333;47.044;15.080;2022-10-31T08:39:02;169.60;;;161.30;;
53439;SDS011;39333;47.044;15.080;2022-10-31T08:41:29;168.85;;;161.15;;
53439;SDS011;39333;47.044;15.080;2022-10-31T08:43:58;162.30;;;155.40;;
53439;SDS011;39333;47.044;15.080;2022-10-31T08:46:25;162.35;;;155.60;;
53439;SDS011;39333;47.044;15.080;2022-10-31T08:48:52;169.38;;;161.57;;
53439;SDS011;39333;47.044;15.080;2022-10-31T08:51:22;160.63;;;153.15;;
53439;SDS011;39333;47.044;15.080;2022-10-31T08:53:52;165.40;;;158.35;;
53439;SDS011;39333;47.044;15.080;2022-10-31T08:56:37;169.13;;;161.83;;
53439;SDS011;39333;47.044;15.080;2022-10-31T08:59:20;166.00;;;158.10;;
53439;SDS011;39333;47.044;15.080;2022-10-31T09:02:13;163.38;;;156.18;;
53439;SDS011;39333;47.044;15.080;2022-10-31T09:04:40;173.38;;;165.90;;
53439;SDS011;39333;47.044;15.080;2022-10-31T09:07:06;166.77;;;159.57;;
53439;SDS011;39333;47.044;15.080;2022-10-31T09:09:46;172.77;;;165.43;;
53439;SDS011;39333;47.044;15.080;2022-10-31T09:12:13;171.52;;;164.00;;
53439;SDS011;39333;47.044;15.080;2022-10-31T09:14:52;164.00;;;157.10;;
53439;SDS011;39333;47.044;15.080;2022-10-31T09:17:39;164.45;;;157.57;;
53439;SDS011;39333;47.044;15.080;2022-10-31T09:20:29;168.20;;;160.60;;
53439;SDS011;39333;47.044;15.080;2022-10-31T09:23:04;171.75;;;164.13;;
53439;SDS011;39333;47.044;15.080;2022-10-31T09:25:36;170.50;;;162.98;;
53439;SDS011;39333;47.044;15.080;2022-10-31T09:28:31;167.48;;;160.18;;
53439;SDS011;39333;47.044;15.080;2022-10-31T09:31:10;166.48;;;159.43;;
53439;SDS011;39333;47.044;15.080;2022-10-31T09:34:00;168.90;;;161.43;;
53439;SDS011;39333;47.044;15.080;2022-10-31T09:36:36;173.63;;;165.57;;
53439;SDS011;39333;47.044;15.080;2022-10-31T09:44:31;168.97;;;161.83;;
53439;SDS011;39333;47.044;15.080;2022-10-31T09:53:22;179.07;;;171.80;;
53439;SDS011;39333;47.044;15.080;2022-10-31T09:56:00;174.95;;;167.27;;
53439;SDS011;39333;47.044;15.080;2022-10-31T09:58:32;174.07;;;166.88;;
53439;SDS011;39333;47.044;15.080;2022-10-31T10:01:05;169.90;;;162.93;;
53439;SDS011;39333;47.044;15.080;2022-10-31T10:03:39;169.90;;;162.68;;
53439;SDS011;39333;47.044;15.080;2022-10-31T10:06:32;169.52;;;162.43;;
53439;SDS011;39333;47.044;15.080;2022-10-31T10:09:20;172.85;;;165.55;;
53439;SDS011;39333;47.044;15.080;2022-10-31T10:12:15;174.65;;;167.05;;
53439;SDS011;39333;47.044;15.080;2022-10-31T10:17:47;166.93;;;160.27;;
53439;SDS011;39333;47.044;15.080;2022-10-31T10:23:22;171.10;;;163.90;;
53439;SDS011;39333;47.044;15.080;2022-10-31T10:26:13;181.35;;;172.50;;
53439;SDS011;39333;47.044;15.080;2022-10-31T10:28:48;174.15;;;166.95;;
53439;SDS011;39333;47.044;15.080;2022-10-31T10:31:25;168.25;;;160.75;;
53439;SDS011;39333;47.044;15.080;2022-10-31T10:36:41;176.52;;;169.02;;
53439;SDS011;39333;47.044;15.080;2022-10-31T10:39:18;174.27;;;166.93;;
53439;SDS011;39333;47.044;15.080;2022-10-31T10:41:49;173.75;;;166.73;;
53439;SDS011;39333;47.044;15.080;2022-10-31T10:44:40;173.55;;;166.50;;
53439;SDS011;39333;47.044;15.080;2022-10-31T10:47:52;165.40;;;158.70;;
53439;SDS011;39333;47.044;15.080;2022-10-31T10:50:27;175.88;;;168.48;;
53439;SDS011;39333;47.044;15.080;2022-10-31T10:55:58;170.88;;;163.77;;
53439;SDS011;39333;47.044;15.080;2022-10-31T10:58:26;173.93;;;166.10;;
53439;SDS011;39333;47.044;15.080;2022-10-31T11:00:53;170.13;;;163.35;;
53439;SDS011;39333;47.044;15.080;2022-10-31T11:03:21;173.10;;;165.90;;
53439;SDS011;39333;47.044;15.080;2022-10-31T11:11:01;175.57;;;168.25;;
53439;SDS011;39333;47.044;15.080;2022-10-31T11:13:46;169.43;;;162.48;;
53439;SDS011;39333;47.044;15.080;2022-10-31T11:16:26;171.55;;;164.27;;
53439;SDS011;39333;47.044;15.080;2022-10-31T11:18:53;169.15;;;161.80;;
53439;SDS011;39333;47.044;15.080;2022-10-31T11:21:31;174.70;;;167.55;;
53439;SDS011;39333;47.044;15.080;2022-10-31T11:26:40;167.80;;;160.95;;
53439;SDS011;39333;47.044;15.080;2022-10-31T11:29:27;172.02;;;165.07;;
53439;SDS011;39333;47.044;15.080;2022-10-31T11:31:54;172.57;;;165.40;;
53439;SDS011;39333;47.044;15.080;2022-10-31T11:36:52;167.18;;;160.10;;
53439;SDS011;39333;47.044;15.080;2022-10-31T11:39:21;172.35;;;165.32;;
53439;SDS011;39333;47.044;15.080;2022-10-31T11:41:52;174.57;;;167.38;;
53439;SDS011;39333;47.044;15.080;2022-10-31T11:44:21;172.57;;;165.70;;
53439;SDS011;39333;47.044;15.080;2022-10-31T11:46:54;169.32;;;162.43;;
53439;SDS011;39333;47.044;15.080;2022-10-31T11:52:19;171.15;;;163.95;;
53439;SDS011;39333;47.044;15.080;2022-10-31T11:59:54;172.13;;;164.82;;
53439;SDS011;39333;47.044;15.080;2022-10-31T12:02:25;176.02;;;168.73;;
53439;SDS011;39333;47.044;15.080;2022-10-31T12:05:03;176.13;;;168.68;;
53439;SDS011;39333;47.044;15.080;2022-10-31T12:07:37;186.73;;;177.57;;
53439;SDS011;39333;47.044;15.080;2022-10-31T12:10:10;171.15;;;164.15;;
53439;SDS011;39333;47.044;15.080;2022-10-31T12:42:32;172.00;;;164.35;;
53439;SDS011;39333;47.044;15.080;2022-10-31T12:47:53;164.45;;;157.52;;
53439;SDS011;39333;47.044;15.080;2022-10-31T12:56:16;172.65;;;165.52;;
53439;SDS011;39333;47.044;15.080;2022-10-31T12:59:04;175.32;;;167.65;;
53439;SDS011;39333;47.044;15.080;2022-10-31T13:02:20;167.70;;;160.70;;
53439;SDS011;39333;47.044;15.080;2022-10-31T13:05:24;169.20;;;162.35;;
53439;SDS011;39333;47.044;15.080;2022-10-31T13:07:37;169.57;;;162.43;;
53439;SDS011;39333;47.044;15.080;2022-10-31T13:13:05;168.88;;;162.07;;
53439;SDS011;39333;47.044;15.080;2022-10-31T13:15:48;171.63;;;164.35;;
53439;SDS011;39333;47.044;15.080;2022-10-31T13:18:43;170.93;;;164.02;;
53439;SDS011;39333;47.044;15.080;2022-10-31T13:21:13;166.98;;;159.77;;
53439;SDS011;39333;47.044;15.080;2022-10-31T13:23:45;174.18;;;166.85;;
53439;SDS011;39333;47.044;15.080;2022-10-31T13:26:30;173.73;;;166.45;;
53439;SDS011;39333;47.044;15.080;2022-10-31T13:32:12;169.80;;;162.52;;
53439;SDS011;39333;47.044;15.080;2022-10-31T13:34:40;165.23;;;158.10;;
53439;SDS011;39333;47.044;15.080;2022-10-31T13:42:51;172.68;;;165.45;;
53439;SDS011;39333;47.044;15.080;2022-10-31T13:45:20;166.10;;;159.20;;
53439;SDS011;39333;47.044;15.080;2022-10-31T13:47:55;168.65;;;161.23;;
53439;SDS011;39333;47.044;15.080;2022-10-31T13:50:26;173.18;;;165.73;;
53439;SDS011;39333;47.044;15.080;2022-10-31T14:01:29;169.32;;;162.23;;
53439;SDS011;39333;47.044;15.080;2022-10-31T14:04:00;166.38;;;159.60;;
53439;SDS011;39333;47.044;15.080;2022-10-31T14:09:36;178.52;;;170.95;;
53439;SDS011;39333;47.044;15.080;2022-10-31T14:12:24;166.18;;;159.60;;
53439;SDS011;39333;47.044;15.080;2022-10-31T14:15:02;172.02;;;165.02;;
53439;SDS011;39333;47.044;15.080;2022-10-31T14:17:51;171.68;;;164.73;;
53439;SDS011;39333;47.044;15.080;2022-10-31T14:28:45;170.40;;;163.52;;
53439;SDS011;39333;47.044;15.080;2022-10-31T14:36:50;172.35;;;165.02;;
53439;SDS011;39333;47.044;15.080;2022-10-31T14:44:59;172.70;;;165.48;;
53439;SDS011;39333;47.044;15.080;2022-10-31T14:47:51;169.77;;;162.88;;
53439;SDS011;39333;47.044;15.080;2022-10-31T14:50:56;166.88;;;159.90;;
53439;SDS011;39333;47.044;15.080;2022-10-31T14:55:58;171.00;;;163.90;;
53439;SDS011;39333;47.044;15.080;2022-10-31T15:00:58;166.15;;;159.30;;
53439;SDS011;39333;47.044;15.080;2022-10-31T15:03:33;168.45;;;161.18;;
53439;SDS011;39333;47.044;15.080;2022-10-31T15:06:10;171.57;;;164.48;;
53439;SDS011;39333;47.044;15.080;2022-10-31T15:08:39;176.52;;;169.18;;
53439;SDS011;39333;47.044;15.080;2022-10-31T15:11:11;176.05;;;168.98;;
53439;SDS011;39333;47.044;15.080;2022-10-31T15:14:14;173.75;;;166.48;;
53439;SDS011;39333;47.044;15.080;2022-10-31T15:16:43;188.23;;;178.95;;
53439;SDS011;39333;47.044;15.080;2022-10-31T15:19:10;178.82;;;170.98;;
53439;SDS011;39333;47.044;15.080;2022-10-31T15:21:43;177.55;;;169.77;;
53439;SDS011;39333;47.044;15.080;2022-10-31T15:24:14;176.10;;;168.57;;
53439;SDS011;39333;47.044;15.080;2022-10-31T15:26:48;177.88;;;170.43;;
53439;SDS011;39333;47.044;15.080;2022-10-31T15:29:21;180.18;;;172.63;;
53439;SDS011;39333;47.044;15.080;2022-10-31T15:31:56;182.32;;;174.25;;
53439;SDS011;39333;47.044;15.080;2022-10-31T15:34:35;172.75;;;165.35;;
53439;SDS011;39333;47.044;15.080;2022-10-31T15:37:05;176.43;;;168.65;;
53439;SDS011;39333;47.044;15.080;2022-10-31T15:39:37;179.98;;;172.55;;
53439;SDS011;39333;47.044;15.080;2022-10-31T15:42:04;174.85;;;167.10;;
53439;SDS011;39333;47.044;15.080;2022-10-31T15:44:40;166.80;;;159.50;;
53439;SDS011;39333;47.044;15.080;2022-10-31T15:47:21;171.20;;;163.95;;
53439;SDS011;39333;47.044;15.080;2022-10-31T15:49:54;174.45;;;166.73;;
53439;SDS011;39333;47.044;15.080;2022-10-31T15:52:29;184.35;;;176.05;;
53439;SDS011;39333;47.044;15.080;2022-10-31T15:55:14;182.35;;;173.65;;
53439;SDS011;39333;47.044;15.080;2022-10-31T15:57:46;182.70;;;173.88;;
53439;SDS011;39333;47.044;15.080;2022-10-31T16:00:25;174.05;;;166.30;;
53439;SDS011;39333;47.044;15.080;2022-10-31T16:03:04;175.25;;;167.57;;
53439;SDS011;39333;47.044;15.080;2022-10-31T16:05:37;181.52;;;173.40;;
53439;SDS011;39333;47.044;15.080;2022-10-31T16:08:30;184.20;;;175.85;;
53439;SDS011;39333;47.044;15.080;2022-10-31T16:16:13;173.45;;;165.77;;
53439;SDS011;39333;47.044;15.080;2022-10-31T16:19:04;184.60;;;175.98;;
53439;SDS011;39333;47.044;15.080;2022-10-31T16:21:38;178.85;;;170.18;;
53439;SDS011;39333;47.044;15.080;2022-10-31T16:24:16;179.93;;;171.60;;
53439;SDS011;39333;47.044;15.080;2022-10-31T16:26:59;174.35;;;166.18;;
53439;SDS011;39333;47.044;15.080;2022-10-31T16:29:41;177.15;;;169.35;;
53439;SDS011;39333;47.044;15.080;2022-10-31T16:35:01;175.43;;;167.63;;
53439;SDS011;39333;47.044;15.080;2022-10-31T16:37:38;180.45;;;172.23;;
53439;SDS011;39333;47.044;15.080;2022-10-31T16:40:05;179.23;;;171.70;;
53439;SDS011;39333;47.044;15.080;2022-10-31T16:42:32;181.02;;;172.85;;
53439;SDS011;39333;47.044;15.080;2022-10-31T16:44:59;177.80;;;169.13;;
53439;SDS011;39333;47.044;15.080;2022-10-31T16:47:26;174.40;;;166.63;;
53439;SDS011;39333;47.044;15.080;2022-10-31T16:49:54;177.20;;;169.20;;
53439;SDS011;39333;47.044;15.080;2022-10-31T16:52:20;185.05;;;176.50;;
53439;SDS011;39333;47.044;15.080;2022-10-31T16:54:47;185.70;;;177.30;;
53439;SDS011;39333;47.044;15.080;2022-10-31T16:57:14;176.88;;;169.05;;
53439;SDS011;39333;47.044;15.080;2022-10-31T16:59:44;173.05;;;165.35;;
53439;SDS011;39333;47.044;15.080;2022-10-31T17:02:15;173.95;;;165.73;;
53439;SDS011;39333;47.044;15.080;2022-10-31T17:04:43;181.90;;;173.50;;
53439;SDS011;39333;47.044;15.080;2022-10-31T17:07:10;180.30;;;172.05;;